Time;durP1;ratioP1;P1;durP2;ratioP2;P2;SDS_P1;SDS_P2;PMS_P1;PMS_P2;Temp;Humidity;BMP_temperature;BMP_pressure;BME280_temperature;BME280_humidity;BME280_pressure;Samples;Min_cycle;Max_cycle;Signal;HPM_P1;HPM_P2
2021/12/13 00:01:26;;;;;;;0.47;0.40;;;;;;;-145.06;0.00;60892.56;4732081;29;20036;-86
2021/12/13 00:04:20;;;;;;;0.63;0.60;;;;;;;-145.06;0.00;60892.56;4727726;29;20466;-86
2021/12/13 00:07:03;;;;;;;0.50;0.50;;;;;;;-145.06;0.00;60892.56;4721029;29;20044;-86
2021/12/13 00:09:48;;;;;;;0.50;0.50;;;;;;;-145.06;0.00;60892.56;4716455;29;20067;-86
2021/12/13 00:12:33;;;;;;;0.45;0.45;;;;;;;-145.06;0.00;60892.56;4716154;29;20029;-85
2021/12/13 00:15:18;;;;;;;0.63;0.40;;;;;;;-145.06;0.00;60892.56;4725122;29;20104;-86
2021/12/13 00:17:59;;;;;;;0.40;0.40;;;;;;;10.80;0.00;60892.56;4726492;29;20131;-86
2021/12/13 00:20:44;;;;;;;0.60;0.40;;;;;;;-145.06;0.00;60892.56;4726876;29;20036;-86
2021/12/13 00:23:29;;;;;;;0.45;0.45;;;;;;;-145.06;0.00;60892.56;4722526;29;20114;-86
2021/12/13 00:26:08;;;;;;;0.57;0.40;;;;;;;11.01;0.00;60892.56;4737362;29;20036;-86
2021/12/13 00:28:48;;;;;;;0.50;0.43;;;;;;;10.79;0.00;60892.56;4733675;29;20107;-85
2021/12/13 00:31:59;;;;;;;0.30;0.30;;;;;;;-145.06;0.00;60892.56;4731265;29;20115;-86
2021/12/13 00:34:41;;;;;;;0.43;0.43;;;;;;;-145.06;0.00;60892.56;4716767;29;20498;-86
2021/12/13 00:37:24;;;;;;;0.30;0.30;;;;;;;-145.06;0.00;60892.56;4730594;29;20040;-85
2021/12/13 00:40:07;;;;;;;0.40;0.30;;;;;;;-145.06;0.00;60892.56;4738286;29;20036;-86
2021/12/13 00:42:51;;;;;;;0.73;0.40;;;;;;;-145.06;0.00;60892.56;4719648;29;20035;-87
2021/12/13 00:45:34;;;;;;;0.40;0.40;;;;;;;-145.06;0.00;60892.56;4719714;29;20111;-86
2021/12/13 00:48:15;;;;;;;0.35;0.35;;;;;;;187.52;0.00;60892.56;4725024;29;20040;-86
2021/12/13 00:51:01;;;;;;;0.50;0.40;;;;;;;187.52;0.00;60892.56;4726593;29;20479;-86
2021/12/13 00:53:46;;;;;;;0.32;0.30;;;;;;;-145.06;0.00;60892.56;4715519;29;20032;-85
2021/12/13 00:56:53;;;;;;;0.57;0.40;;;;;;;-145.06;0.00;60892.56;4729618;29;20044;-86
2021/12/13 00:59:57;;;;;;;0.30;0.30;;;;;;;-145.06;0.00;60892.56;4722854;29;20056;-86
2021/12/13 01:02:58;;;;;;;0.30;0.30;;;;;;;-145.06;0.00;60892.56;4722377;29;20036;-86
2021/12/13 01:05:40;;;;;;;0.30;0.30;;;;;;;-145.06;0.00;60892.56;4719968;29;20032;-86
2021/12/13 01:08:56;;;;;;;0.50;0.30;;;;;;;-145.06;0.00;60892.56;4713023;29;20032;-86
2021/12/13 01:11:48;;;;;;;0.50;0.50;;;;;;;-145.06;0.00;60892.56;4715220;29;20111;-86
2021/12/13 01:14:36;;;;;;;0.40;0.35;;;;;;;-145.06;0.00;60892.56;4709279;29;20052;-85
2021/12/13 01:17:39;;;;;;;0.40;0.40;;;;;;;-145.06;0.00;60892.56;4744701;29;20364;-86
2021/12/13 01:20:54;;;;;;;0.30;0.30;;;;;;;-145.06;0.00;60892.56;4732445;29;20033;-87
2021/12/13 01:23:45;;;;;;;0.82;0.52;;;;;;;-145.06;0.00;60892.56;4718966;29;20033;-86
2021/12/13 01:26:38;;;;;;;0.40;0.40;;;;;;;-145.06;0.00;60892.56;4712844;29;20491;-86
2021/12/13 01:29:24;;;;;;;0.40;0.40;;;;;;;-145.06;0.00;60892.56;4722649;29;20036;-86
2021/12/13 01:32:08;;;;;;;0.40;0.40;;;;;;;-145.06;0.00;60892.56;4720620;29;20029;-86
2021/12/13 01:34:48;;;;;;;0.75;0.40;;;;;;;-145.06;0.00;60892.56;4722950;29;20107;-86
2021/12/13 01:37:31;;;;;;;0.65;0.40;;;;;;;-145.06;0.00;60892.56;4720852;29;20111;-86
2021/12/13 01:40:12;;;;;;;0.45;0.45;;;;;;;-145.06;0.00;60892.56;4723805;29;20037;-87
2021/12/13 01:43:16;;;;;;;0.40;0.30;;;;;;;-145.06;0.00;60892.56;4733253;29;20028;-86
2021/12/13 01:45:58;;;;;;;0.50;0.45;;;;;;;-145.06;0.00;60892.56;4733661;29;20518;-86
2021/12/13 01:48:42;;;;;;;0.47;0.47;;;;;;;-145.06;0.00;60892.56;4733986;29;20126;-85
2021/12/13 01:51:26;;;;;;;0.38;0.38;;;;;;;-145.06;0.00;60892.56;4720940;29;20029;-85
2021/12/13 01:54:12;;;;;;;0.50;0.45;;;;;;;-145.06;0.00;60892.56;4738702;29;20048;-86
2021/12/13 02:00:07;;;;;;;0.50;0.50;;;;;;;-145.06;0.00;60892.56;4720225;29;20076;-86
2021/12/13 02:02:52;;;;;;;0.50;0.50;;;;;;;187.52;0.00;60892.56;4721476;29;20123;-86
2021/12/13 02:05:33;;;;;;;0.60;0.50;;;;;;;187.52;0.00;60892.56;4716376;29;20028;-86
2021/12/13 02:08:14;;;;;;;0.65;0.40;;;;;;;187.52;0.00;60892.56;4720339;29;20033;-86
2021/12/13 02:10:55;;;;;;;0.63;0.50;;;;;;;-145.06;0.00;60892.56;4720462;29;20040;-86
2021/12/13 02:13:42;;;;;;;0.40;0.40;;;;;;;-145.06;0.00;60892.56;4722407;29;20044;-86
2021/12/13 02:19:49;;;;;;;0.60;0.60;;;;;;;10.77;0.00;60892.56;4732972;29;20060;-86
2021/12/13 02:23:05;;;;;;;0.50;0.50;;;;;;;-145.06;0.00;60892.56;4726162;29;20142;-86
2021/12/13 02:25:52;;;;;;;0.40;0.40;;;;;;;-145.06;0.00;60892.56;4667470;29;20446;-86
2021/12/13 02:28:37;;;;;;;0.70;0.50;;;;;;;-145.06;0.00;60892.56;4709764;29;20032;-86
2021/12/13 02:31:28;;;;;;;1.02;0.50;;;;;;;-145.06;0.00;60892.56;4725074;29;20111;-85
2021/12/13 02:34:12;;;;;;;0.40;0.40;;;;;;;-145.06;0.00;60892.56;4719173;29;20832;-86
2021/12/13 02:36:58;;;;;;;0.50;0.40;;;;;;;-145.06;0.00;60892.56;4719398;29;20036;-86
2021/12/13 02:39:44;;;;;;;0.82;0.52;;;;;;;-145.06;0.00;60892.56;4717091;29;20029;-86
2021/12/13 02:42:23;;;;;;;0.50;0.50;;;;;;;-145.06;0.00;60892.56;4726981;29;20149;-86
2021/12/13 02:45:20;;;;;;;0.55;0.40;;;;;;;-145.06;0.00;60892.56;4733711;29;20119;-87
2021/12/13 02:48:04;;;;;;;0.43;0.43;;;;;;;187.52;0.00;60892.56;4720289;29;20383;-86
2021/12/13 02:50:54;;;;;;;0.50;0.50;;;;;;;10.67;0.00;60892.56;4705831;29;20108;-87
2021/12/13 02:53:53;;;;;;;0.35;0.35;;;;;;;10.67;0.00;60892.56;4721747;29;20036;-86
2021/12/13 02:56:37;;;;;;;0.50;0.50;;;;;;;10.67;0.00;60892.56;4738367;29;20115;-86
2021/12/13 02:59:17;;;;;;;0.40;0.40;;;;;;;-145.06;0.00;60892.56;4714734;29;20036;-87
2021/12/13 03:02:09;;;;;;;2.38;0.70;;;;;;;-145.06;0.00;60892.56;4718521;29;20055;-86
2021/12/13 03:04:49;;;;;;;0.55;0.50;;;;;;;10.65;0.00;60892.56;4729095;29;20486;-85
2021/12/13 03:07:33;;;;;;;0.40;0.40;;;;;;;10.68;0.00;60892.56;4729164;29;20040;-86
2021/12/13 03:10:20;;;;;;;1.08;0.60;;;;;;;187.52;0.00;60892.56;4740851;29;20032;-86
2021/12/13 03:13:00;;;;;;;1.30;0.88;;;;;;;10.62;0.00;60892.56;4730294;29;20378;-87
2021/12/13 03:15:46;;;;;;;1.13;0.52;;;;;;;10.64;0.00;60892.56;4732217;29;20032;-86
2021/12/13 03:18:41;;;;;;;0.45;0.38;;;;;;;-145.06;0.00;60892.56;4722810;29;20768;-86
2021/12/13 03:21:48;;;;;;;0.60;0.50;;;;;;;-145.06;0.00;60892.56;4733092;29;20045;-85
2021/12/13 03:24:33;;;;;;;1.15;0.60;;;;;;;10.62;0.00;60892.56;4735209;29;20478;-86
2021/12/13 03:27:50;;;;;;;0.50;0.50;;;;;;;10.61;0.00;60892.56;4715526;29;20037;-86
2021/12/13 03:30:35;;;;;;;0.40;0.40;;;;;;;10.61;0.00;60892.56;4713980;29;20032;-86
2021/12/13 03:33:19;;;;;;;0.32;0.30;;;;;;;-145.06;0.00;60892.56;4722874;29;20051;-87
2021/12/13 03:36:05;;;;;;;0.38;0.38;;;;;;;-145.06;0.00;60892.56;4716602;29;20021;-87
2021/12/13 03:38:50;;;;;;;0.30;0.30;;;;;;;-145.06;0.00;60892.56;4721366;29;20790;-87
2021/12/13 03:41:29;;;;;;;0.30;0.30;;;;;;;-145.06;0.00;60892.56;4724403;29;20040;-86
2021/12/13 03:44:13;;;;;;;0.47;0.40;;;;;;;10.60;0.00;60892.56;4714300;29;20064;-87
2021/12/13 03:47:02;;;;;;;0.40;0.40;;;;;;;10.61;0.00;60892.56;4732502;29;20028;-86
2021/12/13 03:49:53;;;;;;;0.40;0.40;;;;;;;-145.06;0.00;60892.56;4718402;29;20032;-87
2021/12/13 03:52:38;;;;;;;0.38;0.38;;;;;;;-145.06;0.00;60892.56;4738168;29;20068;-86
2021/12/13 03:55:20;;;;;;;0.32;0.32;;;;;;;-145.06;0.00;60892.56;4731775;29;20060;-86
2021/12/13 03:58:04;;;;;;;0.50;0.40;;;;;;;-145.06;0.00;60892.56;4737250;29;20044;-86
2021/12/13 04:00:55;;;;;;;0.38;0.35;;;;;;;10.67;0.00;60892.56;4711584;29;20032;-85
2021/12/13 04:03:35;;;;;;;0.35;0.35;;;;;;;-145.06;0.00;60892.56;4725153;29;20036;-87
2021/12/13 04:06:16;;;;;;;0.80;0.60;;;;;;;10.64;0.00;60892.56;4706021;29;20372;-87
2021/12/13 04:08:58;;;;;;;0.40;0.40;;;;;;;-145.06;0.00;60892.56;4716643;29;20033;-87
2021/12/13 04:11:40;;;;;;;1.05;0.55;;;;;;;10.68;0.00;60892.56;4729891;29;20027;-87
2021/12/13 04:14:30;;;;;;;0.30;0.30;;;;;;;10.68;0.00;60892.56;4713181;29;20440;-87
2021/12/13 04:17:19;;;;;;;0.40;0.40;;;;;;;-145.06;0.00;60892.56;4731609;29;20115;-86
2021/12/13 04:20:00;;;;;;;0.40;0.40;;;;;;;-145.06;0.00;60892.56;4736960;29;20384;-86
2021/12/13 04:22:47;;;;;;;0.30;0.30;;;;;;;-145.06;0.00;60892.56;4721367;29;20033;-87
2021/12/13 04:25:33;;;;;;;0.50;0.40;;;;;;;-145.06;0.00;60892.56;4720710;29;20024;-86
2021/12/13 04:28:17;;;;;;;0.30;0.30;;;;;;;-145.06;0.00;60892.56;4742161;29;20035;-87
2021/12/13 04:30:59;;;;;;;0.30;0.30;;;;;;;-145.06;0.00;60892.56;4718358;29;20380;-87
2021/12/13 04:33:43;;;;;;;0.20;0.20;;;;;;;21.08;0.00;60892.56;4723052;29;20028;-87
2021/12/13 04:36:27;;;;;;;0.35;0.20;;;;;;;15.88;0.00;60892.56;4715145;29;20435;-87
2021/12/13 04:39:21;;;;;;;0.30;0.30;;;;;;;-145.06;0.00;60892.56;4731772;29;20040;-86
2021/12/13 04:42:08;;;;;;;0.98;0.30;;;;;;;-145.06;0.00;60892.56;4712894;29;20036;-86
2021/12/13 04:44:49;;;;;;;0.20;0.20;;;;;;;-145.06;0.00;60892.56;4725872;29;20059;-87
2021/12/13 04:47:35;;;;;;;0.32;0.32;;;;;;;-145.06;0.00;60892.56;4717752;29;20611;-87
2021/12/13 04:50:45;;;;;;;0.30;0.30;;;;;;;-145.06;0.00;60892.56;4719002;29;20031;-85
2021/12/13 04:53:27;;;;;;;1.92;0.30;;;;;;;-145.06;0.00;60892.56;4716018;29;20044;-87
2021/12/13 04:56:19;;;;;;;0.50;0.40;;;;;;;-145.06;0.00;60892.56;4717194;29;20020;-87
2021/12/13 04:59:02;;;;;;;1.45;0.47;;;;;;;-145.06;0.00;60892.56;4741526;29;20363;-87
2021/12/13 05:01:46;;;;;;;0.70;0.40;;;;;;;-145.06;0.00;60892.56;4725330;29;20036;-86
2021/12/13 05:04:29;;;;;;;0.40;0.40;;;;;;;187.52;0.00;60892.56;4719452;29;20028;-87
2021/12/13 05:07:08;;;;;;;0.40;0.30;;;;;;;15.88;0.00;60892.56;4714236;29;20032;-86
2021/12/13 05:09:48;;;;;;;0.40;0.32;;;;;;;-145.06;0.00;60892.56;4712437;29;20028;-87
2021/12/13 05:12:28;;;;;;;0.75;0.50;;;;;;;-145.06;0.00;60892.56;4709078;29;20045;-86
2021/12/13 05:15:12;;;;;;;0.63;0.30;;;;;;;-145.06;0.00;60892.56;4727992;29;20029;-87
2021/12/13 05:17:53;;;;;;;0.30;0.30;;;;;;;-145.06;0.00;60892.56;4717367;29;20025;-87
2021/12/13 05:20:38;;;;;;;0.38;0.30;;;;;;;-145.06;0.00;60892.56;4743707;29;20044;-86
2021/12/13 05:23:22;;;;;;;0.30;0.30;;;;;;;-145.06;0.00;60892.56;4760642;29;20024;-86
2021/12/13 05:26:07;;;;;;;0.60;0.40;;;;;;;-145.06;0.00;60892.56;4755393;29;20044;-87
2021/12/13 05:28:50;;;;;;;0.25;0.25;;;;;;;-145.06;0.00;60892.56;4727762;29;20028;-86
2021/12/13 05:31:30;;;;;;;0.30;0.30;;;;;;;-145.06;0.00;60892.56;4729811;29;20063;-86
2021/12/13 05:34:09;;;;;;;0.30;0.30;;;;;;;21.08;0.00;60892.56;4722606;29;20040;-88
2021/12/13 05:36:58;;;;;;;0.40;0.40;;;;;;;-145.06;0.00;60892.56;4733006;29;20037;-87
2021/12/13 05:39:52;;;;;;;0.25;0.25;;;;;;;-145.06;0.00;60892.56;4720075;29;20754;-88
2021/12/13 05:42:45;;;;;;;0.30;0.30;;;;;;;-145.06;0.00;60892.56;4726424;29;20482;-87
2021/12/13 05:45:38;;;;;;;0.38;0.30;;;;;;;10.65;0.00;60892.56;4734146;29;20032;-86
2021/12/13 05:48:44;;;;;;;0.65;0.30;;;;;;;-145.06;0.00;60892.56;4718828;29;20028;-87
2021/12/13 05:51:26;;;;;;;0.30;0.30;;;;;;;-145.06;0.00;60892.56;4739530;29;20071;-87
2021/12/13 05:54:12;;;;;;;0.85;0.40;;;;;;;10.68;0.00;60892.56;4711890;29;20068;-87
2021/12/13 05:56:53;;;;;;;0.40;0.30;;;;;;;10.61;0.00;60892.56;4727226;29;20041;-87
2021/12/13 05:59:37;;;;;;;0.30;0.30;;;;;;;-145.06;0.00;60892.56;4723319;29;20028;-87
2021/12/13 06:02:39;;;;;;;0.32;0.32;;;;;;;10.61;0.00;60892.56;4707593;29;20036;-87
2021/12/13 06:05:23;;;;;;;0.20;0.20;;;;;;;21.08;0.00;60892.56;4718398;29;20036;-87
2021/12/13 06:08:11;;;;;;;0.63;0.40;;;;;;;10.60;0.00;60892.56;4710973;29;20040;-87
2021/12/13 06:10:58;;;;;;;1.23;0.47;;;;;;;10.61;0.00;60892.56;4734626;29;20036;-88
2021/12/13 06:13:43;;;;;;;0.30;0.30;;;;;;;10.60;0.00;60892.56;4712365;29;20115;-87
2021/12/13 06:16:25;;;;;;;0.30;0.20;;;;;;;10.60;0.00;60892.56;4730724;29;20020;-87
2021/12/13 06:19:10;;;;;;;0.30;0.30;;;;;;;-145.06;0.00;60892.56;4713210;29;20048;-87
2021/12/13 06:22:05;;;;;;;0.40;0.35;;;;;;;10.59;0.00;60892.56;4719746;29;20025;-87
2021/12/13 06:25:24;;;;;;;0.32;0.30;;;;;;;-145.06;0.00;60892.56;4727383;29;20139;-88
2021/12/13 06:28:05;;;;;;;1.27;0.40;;;;;;;10.68;0.00;60892.56;4662619;29;20031;-87
2021/12/13 06:30:52;;;;;;;0.28;0.28;;;;;;;-145.06;0.00;60892.56;4726991;29;20040;-87
2021/12/13 06:34:05;;;;;;;0.30;0.30;;;;;;;10.51;0.00;60892.56;4721377;29;20041;-87
2021/12/13 06:36:52;;;;;;;0.20;0.20;;;;;;;10.50;0.00;60892.56;4716243;29;20076;-87
2021/12/13 06:39:31;;;;;;;0.38;0.20;;;;;;;-145.06;0.00;60892.56;4720774;29;20387;-87
2021/12/13 06:42:13;;;;;;;0.25;0.25;;;;;;;-145.06;0.00;60892.56;4727488;29;20067;-88
2021/12/13 06:44:52;;;;;;;0.28;0.22;;;;;;;-145.06;0.00;60892.56;4712443;29;20020;-88
2021/12/13 06:47:31;;;;;;;0.30;0.30;;;;;;;-145.06;0.00;60892.56;4723180;29;20064;-86
2021/12/13 06:50:19;;;;;;;0.38;0.35;;;;;;;-145.06;0.00;60892.56;4717384;29;20072;-87
2021/12/13 06:53:19;;;;;;;0.20;0.20;;;;;;;-145.06;0.00;60892.56;4729454;29;20159;-87
2021/12/13 06:56:18;;;;;;;0.20;0.20;;;;;;;-145.06;0.00;60892.56;4720831;29;20032;-87
2021/12/13 06:59:02;;;;;;;0.38;0.38;;;;;;;-145.06;0.00;60892.56;4734776;29;20127;-87
2021/12/13 07:01:42;;;;;;;0.80;0.30;;;;;;;-145.06;0.00;60892.56;4724511;29;20416;-86
2021/12/13 07:04:22;;;;;;;0.50;0.30;;;;;;;-145.06;0.00;60892.56;4740060;29;20085;-87
2021/12/13 07:07:12;;;;;;;0.25;0.25;;;;;;;-145.06;0.00;60892.56;4734522;29;20380;-86
2021/12/13 07:09:56;;;;;;;0.40;0.40;;;;;;;-145.06;0.00;60892.56;4723426;29;20065;-86
2021/12/13 07:12:45;;;;;;;0.70;0.40;;;;;;;10.41;0.00;60892.56;4721748;29;20067;-86
2021/12/13 07:15:38;;;;;;;0.52;0.32;;;;;;;-145.06;0.00;60892.56;4721654;29;20423;-87
2021/12/13 07:18:29;;;;;;;0.85;0.40;;;;;;;-145.06;0.00;60892.56;4714916;29;20044;-87
2021/12/13 07:21:15;;;;;;;0.45;0.35;;;;;;;-145.06;0.00;60892.56;4720804;29;20364;-87
2021/12/13 07:24:05;;;;;;;1.88;0.50;;;;;;;-145.06;0.00;60892.56;4724377;29;20032;-87
2021/12/13 07:26:53;;;;;;;0.20;0.20;;;;;;;10.25;0.00;60892.56;4727935;29;20029;-86
2021/12/13 07:29:57;;;;;;;0.20;0.20;;;;;;;-145.06;0.00;60892.56;4737722;29;20427;-86
2021/12/13 07:32:52;;;;;;;0.20;0.20;;;;;;;10.23;0.00;60892.56;4719490;29;20036;-87
2021/12/13 07:35:33;;;;;;;0.40;0.28;;;;;;;10.24;0.00;60892.56;4718037;29;20021;-87
2021/12/13 07:38:18;;;;;;;0.20;0.20;;;;;;;-145.06;0.00;60892.56;4713105;29;20040;-86
2021/12/13 07:41:02;;;;;;;0.22;0.20;;;;;;;-145.06;0.00;60892.56;4735972;29;20439;-86
2021/12/13 07:43:45;;;;;;;0.30;0.20;;;;;;;-145.06;0.00;60892.56;4720763;29;20063;-86
2021/12/13 07:46:34;;;;;;;0.20;0.20;;;;;;;-145.06;0.00;60892.56;4736019;29;20028;-87
2021/12/13 07:49:14;;;;;;;0.30;0.30;;;;;;;-145.06;0.00;60892.56;4723785;29;20483;-86
2021/12/13 07:51:56;;;;;;;;;;;;;;;-145.06;0.00;60892.56;4709062;29;20620;-86
2021/12/13 07:54:42;;;;;;;0.20;0.20;;;;;;;-145.06;0.00;60892.56;4724841;29;19911;-87
2021/12/13 07:57:25;;;;;;;0.40;0.40;;;;;;;-145.06;0.00;60892.56;4714198;29;20037;-87
2021/12/13 08:00:20;;;;;;;0.30;0.30;;;;;;;-145.06;0.00;60892.56;4732420;29;20028;-86
2021/12/13 08:03:03;;;;;;;0.50;0.50;;;;;;;-145.06;0.00;60892.56;4717155;29;20041;-87
2021/12/13 08:05:49;;;;;;;0.40;0.38;;;;;;;-145.06;0.00;60892.56;4712574;29;20036;-86
2021/12/13 08:08:32;;;;;;;0.30;0.30;;;;;;;-145.06;0.00;60892.56;4712588;29;20368;-87
2021/12/13 08:11:11;;;;;;;0.30;0.30;;;;;;;-145.06;0.00;60892.56;4709102;29;20072;-87
2021/12/13 08:13:58;;;;;;;0.40;0.40;;;;;;;10.27;0.00;60892.56;4731915;29;20056;-87
2021/12/13 08:16:46;;;;;;;0.30;0.30;;;;;;;-145.06;0.00;60892.56;4712545;29;20036;-87
2021/12/13 08:19:31;;;;;;;0.30;0.30;;;;;;;10.30;0.00;60892.56;4704391;29;20542;-87
2021/12/13 08:22:16;;;;;;;0.30;0.30;;;;;;;10.31;0.00;60892.56;4721363;29;20044;-87
2021/12/13 08:25:08;;;;;;;0.30;0.30;;;;;;;10.31;0.00;60892.56;4745283;29;20024;-86
2021/12/13 08:27:55;;;;;;;0.20;0.20;;;;;;;10.33;0.00;60892.56;4714165;29;20029;-87
2021/12/13 08:30:52;;;;;;;0.20;0.20;;;;;;;-145.06;0.00;60892.56;4721934;29;20498;-87
2021/12/13 08:33:39;;;;;;;0.30;0.30;;;;;;;-145.06;0.00;60892.56;4712691;29;20020;-88
2021/12/13 08:36:34;;;;;;;0.30;0.30;;;;;;;-145.06;0.00;60892.56;4719588;29;20028;-87
2021/12/13 08:39:48;;;;;;;0.40;0.30;;;;;;;10.37;0.00;60892.56;4718478;29;20071;-87
2021/12/13 08:42:34;;;;;;;0.20;0.20;;;;;;;10.39;0.00;60892.56;4713213;29;20494;-87
2021/12/13 08:45:26;;;;;;;0.20;0.20;;;;;;;-145.06;0.00;60892.56;4734247;29;20355;-87
2021/12/13 08:48:12;;;;;;;0.40;0.32;;;;;;;-145.06;0.00;60892.56;4739377;29;20024;-87
2021/12/13 08:50:55;;;;;;;0.20;0.20;;;;;;;-145.06;0.00;60892.56;4727862;29;20025;-86
2021/12/13 08:53:37;;;;;;;0.30;0.20;;;;;;;-145.06;0.00;60892.56;4711249;29;20040;-88
2021/12/13 08:56:21;;;;;;;0.32;0.20;;;;;;;-145.06;0.00;60892.56;4726439;29;20068;-86
2021/12/13 08:59:09;;;;;;;0.38;0.30;;;;;;;10.54;0.00;60892.56;4708220;29;20033;-87
2021/12/13 09:01:58;;;;;;;0.30;0.30;;;;;;;10.55;0.00;60892.56;4711105;29;20036;-87
2021/12/13 09:04:42;;;;;;;0.38;0.38;;;;;;;10.58;0.00;60892.56;4708093;29;20111;-87
2021/12/13 09:07:24;;;;;;;0.32;0.30;;;;;;;-145.06;0.00;60892.56;4741757;29;20439;-88
2021/12/13 09:10:06;;;;;;;0.60;0.50;;;;;;;-145.06;0.00;60892.56;4717458;29;20033;-86
2021/12/13 09:12:47;;;;;;;0.30;0.30;;;;;;;10.63;0.00;60892.56;4724330;29;20036;-87
2021/12/13 09:15:30;;;;;;;0.43;0.40;;;;;;;-145.06;0.00;60892.56;4713564;29;20056;-87
2021/12/13 09:18:19;;;;;;;0.40;0.40;;;;;;;-145.06;0.00;60892.56;4726795;29;20033;-87
2021/12/13 09:21:00;;;;;;;0.43;0.40;;;;;;;10.64;0.00;60892.56;4719998;29;20059;-88
2021/12/13 09:23:44;;;;;;;0.30;0.30;;;;;;;-145.06;0.00;60892.56;4735743;29;20452;-87
2021/12/13 09:26:25;;;;;;;0.45;0.45;;;;;;;-145.06;0.00;60892.56;4726734;29;20033;-88
2021/12/13 09:29:06;;;;;;;0.60;0.40;;;;;;;-145.06;0.00;60892.56;4719631;29;20427;-87
2021/12/13 09:31:51;;;;;;;0.80;0.50;;;;;;;-145.06;0.00;60892.56;4725063;29;20035;-88
2021/12/13 09:34:30;;;;;;;0.60;0.60;;;;;;;10.79;0.00;60892.56;4712348;29;20029;-88
2021/12/13 09:37:09;;;;;;;0.40;0.40;;;;;;;10.83;0.00;60892.56;4725642;29;20044;-87
2021/12/13 09:39:59;;;;;;;0.53;0.47;;;;;;;-145.06;0.00;60892.56;4712335;29;20808;-88
2021/12/13 09:42:51;;;;;;;0.90;0.70;;;;;;;-145.06;0.00;60892.56;4744471;29;20359;-88
2021/12/13 09:45:40;;;;;;;0.60;0.55;;;;;;;-145.06;0.00;60892.56;4719676;29;20484;-86
2021/12/13 09:48:29;;;;;;;0.70;0.70;;;;;;;10.95;0.00;60892.56;4720619;29;20024;-87
2021/12/13 09:51:22;;;;;;;0.77;0.40;;;;;;;-145.06;0.00;60892.56;4741672;29;20036;-87
2021/12/13 09:54:06;;;;;;;0.95;0.45;;;;;;;-145.06;0.00;60892.56;4727227;29;20032;-88
2021/12/13 09:56:49;;;;;;;0.32;0.32;;;;;;;10.99;0.00;60892.56;4718050;29;20431;-87
2021/12/13 09:59:56;;;;;;;0.30;0.30;;;;;;;10.99;0.00;60892.56;4735838;29;20032;-87
2021/12/13 10:02:40;;;;;;;0.30;0.30;;;;;;;-145.06;0.00;60892.56;4717683;29;20033;-88
2021/12/13 10:05:24;;;;;;;0.47;0.30;;;;;;;10.97;0.00;60892.56;4716996;29;20549;-88
2021/12/13 10:08:12;;;;;;;0.40;0.30;;;;;;;-145.06;0.00;60892.56;4716587;29;20032;-88
2021/12/13 10:11:06;;;;;;;0.20;0.20;;;;;;;-145.06;0.00;60892.56;4720564;29;20039;-87
2021/12/13 10:13:46;;;;;;;0.20;0.20;;;;;;;-145.06;0.00;60892.56;4718152;29;20029;-88
2021/12/13 10:16:31;;;;;;;0.30;0.30;;;;;;;-145.06;0.00;60892.56;4710194;29;20033;-87
2021/12/13 10:19:18;;;;;;;0.20;0.20;;;;;;;-145.06;0.00;60892.56;4726612;29;20052;-88
2021/12/13 10:22:00;;;;;;;0.20;0.20;;;;;;;-145.06;0.00;60892.56;4719977;29;20032;-87
2021/12/13 10:24:51;;;;;;;0.52;0.20;;;;;;;-145.06;0.00;60892.56;4733225;29;20028;-87
2021/12/13 10:27:31;;;;;;;0.20;0.20;;;;;;;-145.06;0.00;60892.56;4711482;29;20024;-88
2021/12/13 10:30:19;;;;;;;0.20;0.20;;;;;;;-145.06;0.00;60892.56;4721963;29;20037;-87
2021/12/13 10:33:07;;;;;;;0.30;0.30;;;;;;;-145.06;0.00;60892.56;4719537;29;20037;-87
2021/12/13 10:35:52;;;;;;;0.20;0.20;;;;;;;-145.06;0.00;60892.56;4725388;29;20044;-87
2021/12/13 10:38:45;;;;;;;0.30;0.20;;;;;;;-145.06;0.00;60892.56;4730775;29;20032;-87
2021/12/13 10:41:33;;;;;;;0.20;0.20;;;;;;;-145.06;0.00;60892.56;4722022;29;20041;-87
2021/12/13 10:44:25;;;;;;;0.30;0.30;;;;;;;-145.06;0.00;60892.56;4717981;29;20028;-88
2021/12/13 10:47:10;;;;;;;0.20;0.20;;;;;;;-145.06;0.00;60892.56;4724602;29;20127;-87
2021/12/13 10:49:52;;;;;;;0.52;0.30;;;;;;;-145.06;0.00;60892.56;4715035;29;20044;-87
2021/12/13 10:52:44;;;;;;;0.30;0.20;;;;;;;-145.06;0.00;60892.56;4736448;29;20550;-87
2021/12/13 10:55:34;;;;;;;0.15;0.15;;;;;;;-145.06;0.00;60892.56;4713838;29;20037;-87
2021/12/13 10:58:18;;;;;;;0.30;0.30;;;;;;;-145.06;0.00;60892.56;4728386;29;20032;-87
2021/12/13 11:01:06;;;;;;;0.10;0.10;;;;;;;-145.06;0.00;60892.56;4715926;29;20076;-87
2021/12/13 11:03:47;;;;;;;0.20;0.20;;;;;;;-145.06;0.00;60892.56;4709096;29;20052;-88
2021/12/13 11:06:27;;;;;;;0.20;0.20;;;;;;;-145.06;0.00;60892.56;4723326;29;20032;-87
2021/12/13 11:09:10;;;;;;;0.30;0.30;;;;;;;-145.06;0.00;60892.56;4721668;29;20044;-87
2021/12/13 11:11:58;;;;;;;0.17;0.17;;;;;;;-145.06;0.00;60892.56;4734839;29;20490;-87
2021/12/13 11:14:41;;;;;;;0.20;0.20;;;;;;;-145.06;0.00;60892.56;4737379;29;20036;-87
2021/12/13 11:17:27;;;;;;;0.25;0.25;;;;;;;-145.06;0.00;60892.56;4734883;29;20372;-88
2021/12/13 11:20:18;;;;;;;0.20;0.20;;;;;;;-145.06;0.00;60892.56;4724419;29;20025;-87
2021/12/13 11:22:58;;;;;;;0.25;0.25;;;;;;;-145.06;0.00;60892.56;4723301;29;20477;-87
2021/12/13 11:25:42;;;;;;;0.30;0.25;;;;;;;-145.06;0.00;60892.56;4696340;29;20029;-87
2021/12/13 11:28:25;;;;;;;0.20;0.20;;;;;;;-145.06;0.00;60892.56;4705963;29;20033;-88
2021/12/13 11:31:28;;;;;;;0.30;0.20;;;;;;;-145.06;0.00;60892.56;4713641;29;20028;-87
2021/12/13 11:34:31;;;;;;;0.20;0.20;;;;;;;-145.06;0.00;60892.56;4735564;29;20107;-87
2021/12/13 11:37:11;;;;;;;0.20;0.20;;;;;;;-145.06;0.00;60892.56;4708958;29;20495;-87
2021/12/13 11:39:52;;;;;;;0.20;0.20;;;;;;;-145.06;0.00;60892.56;4709758;29;20045;-88
2021/12/13 11:43:11;;;;;;;0.20;0.20;;;;;;;-145.06;0.00;60892.56;4709630;29;20613;-88
2021/12/13 11:45:53;;;;;;;0.25;0.20;;;;;;;-145.06;0.00;60892.56;4707656;29;20033;-87
2021/12/13 11:48:57;;;;;;;0.32;0.28;;;;;;;-145.06;0.00;60892.56;4744129;29;20033;-88
2021/12/13 11:52:20;;;;;;;0.90;0.28;;;;;;;-145.06;0.00;60892.56;4727433;29;20028;-88
2021/12/13 11:55:35;;;;;;;0.28;0.20;;;;;;;-145.06;0.00;60892.56;4703278;29;20045;-88
2021/12/13 11:58:45;;;;;;;0.28;0.20;;;;;;;-145.06;0.00;60892.56;4736410;29;20483;-87
2021/12/13 12:01:52;;;;;;;0.10;0.10;;;;;;;-145.06;0.00;60892.56;4719035;29;20043;-87
2021/12/13 12:05:09;;;;;;;0.20;0.20;;;;;;;-145.06;0.00;60892.56;4736578;29;20028;-87
2021/12/13 12:08:19;;;;;;;0.20;0.20;;;;;;;-145.06;0.00;60892.56;4725419;29;20473;-87
2021/12/13 12:11:25;;;;;;;0.20;0.20;;;;;;;-145.06;0.00;60892.56;4716670;29;20024;-87
2021/12/13 12:14:11;;;;;;;0.28;0.20;;;;;;;-145.06;0.00;60892.56;4714326;29;20032;-88
2021/12/13 12:16:56;;;;;;;0.25;0.25;;;;;;;-145.06;0.00;60892.56;4745036;29;20080;-87
2021/12/13 12:19:41;;;;;;;0.52;0.43;;;;;;;-145.06;0.00;60892.56;4727772;29;20355;-87
2021/12/13 12:22:22;;;;;;;0.20;0.20;;;;;;;-145.06;0.00;60892.56;4714399;29;20029;-87
2021/12/13 12:25:03;;;;;;;0.30;0.20;;;;;;;-145.06;0.00;60892.56;4728071;29;20629;-88
2021/12/13 12:27:42;;;;;;;0.20;0.20;;;;;;;-145.06;0.00;60892.56;4700535;29;20067;-88
2021/12/13 12:30:30;;;;;;;0.20;0.20;;;;;;;-145.06;0.00;60892.56;4712587;29;20037;-88
2021/12/13 12:33:11;;;;;;;0.20;0.20;;;;;;;-145.06;0.00;60892.56;4719820;29;20028;-86
2021/12/13 12:35:50;;;;;;;0.20;0.20;;;;;;;-145.06;0.00;60892.56;4718043;29;20491;-87
2021/12/13 12:39:06;;;;;;;0.20;0.20;;;;;;;-145.06;0.00;60892.56;4723552;29;20443;-87
2021/12/13 12:41:51;;;;;;;0.25;0.20;;;;;;;-145.06;0.00;60892.56;4707971;29;20269;-88
2021/12/13 12:44:52;;;;;;;0.13;0.13;;;;;;;-145.06;0.00;60892.56;4735585;29;20032;-88
2021/12/13 12:47:33;;;;;;;0.20;0.20;;;;;;;-145.06;0.00;60892.56;4717164;29;20115;-88
2021/12/13 12:50:24;;;;;;;0.25;0.22;;;;;;;-145.06;0.00;60892.56;4720426;29;20036;-88
2021/12/13 12:53:08;;;;;;;0.20;0.20;;;;;;;-145.06;0.00;60892.56;4712493;29;20036;-88
2021/12/13 12:56:28;;;;;;;0.20;0.20;;;;;;;-145.06;0.00;60892.56;4717687;29;20024;-88
2021/12/13 12:59:13;;;;;;;0.20;0.20;;;;;;;-145.06;0.00;60892.56;4725340;29;20048;-88
2021/12/13 13:01:58;;;;;;;0.22;0.22;;;;;;;-145.06;0.00;60892.56;4731388;29;20032;-88
2021/12/13 13:04:50;;;;;;;0.20;0.20;;;;;;;-145.06;0.00;60892.56;4721333;29;20035;-88
2021/12/13 13:07:34;;;;;;;0.20;0.20;;;;;;;-145.06;0.00;60892.56;4719801;29;20029;-88
2021/12/13 13:10:34;;;;;;;0.20;0.20;;;;;;;-145.06;0.00;60892.56;4726570;29;20033;-88
2021/12/13 13:13:13;;;;;;;;;;;;;;;-145.06;0.00;60892.56;4711541;29;20032;-88